Time;durP1;ratioP1;P1;durP2;ratioP2;P2;SDS_P1;SDS_P2;PMS_P1;PMS_P2;Temp;Humidity;BMP_temperature;BMP_pressure;BME280_temperature;BME280_humidity;BME280_pressure;Samples;Min_cycle;Max_cycle;Signal;HPM_P1;HPM_P2
2021/08/15 00:00:52;;;;;;;9.32;5.43;;;;;;;16.01;100.00;101618.69;5154719;28;20038;-67
2021/08/15 00:03:23;;;;;;;7.93;4.78;;;;;;;16.02;100.00;101615.91;5155669;28;20158;-66
2021/08/15 00:05:54;;;;;;;8.85;5.18;;;;;;;16.03;100.00;101614.09;5155134;28;20671;-67
2021/08/15 00:08:26;;;;;;;9.55;6.40;;;;;;;16.08;100.00;101614.47;5155007;28;20469;-66
2021/08/15 00:10:57;;;;;;;11.25;6.10;;;;;;;16.09;100.00;101610.00;5153095;28;20027;-66
2021/08/15 00:13:28;;;;;;;12.30;7.78;;;;;;;16.14;100.00;101605.09;5153633;28;20043;-68
2021/08/15 00:16:00;;;;;;;10.82;6.63;;;;;;;16.15;100.00;101604.97;5154927;28;20393;-67
2021/08/15 00:18:31;;;;;;;10.13;6.88;;;;;;;16.17;100.00;101604.81;5154384;28;20098;-67
2021/08/15 00:21:03;;;;;;;11.98;6.97;;;;;;;16.16;100.00;101609.28;5154820;28;20460;-66
2021/08/15 00:23:34;;;;;;;11.57;6.90;;;;;;;16.21;100.00;101614.97;5154224;28;20657;-67
2021/08/15 00:26:05;;;;;;;10.45;6.53;;;;;;;16.23;100.00;101614.81;5154249;28;20457;-67
2021/08/15 00:28:37;;;;;;;11.18;6.80;;;;;;;16.20;100.00;101615.94;5153581;28;20035;-66
2021/08/15 00:31:10;;;;;;;9.57;6.18;;;;;;;16.21;100.00;101616.75;5154356;28;20047;-66
2021/08/15 00:33:42;;;;;;;7.78;5.95;;;;;;;16.19;100.00;101614.28;5153767;28;20023;-66
2021/08/15 00:36:13;;;;;;;11.48;5.90;;;;;;;16.15;100.00;101606.78;5153693;28;20046;-67
2021/08/15 00:38:44;;;;;;;12.25;6.03;;;;;;;16.15;100.00;101604.97;5152844;28;20083;-67
2021/08/15 00:41:15;;;;;;;10.50;6.72;;;;;;;16.11;100.00;101611.53;5153797;28;20035;-67
2021/08/15 00:43:47;;;;;;;10.65;7.32;;;;;;;16.14;100.00;101603.31;5153476;28;20058;-67
2021/08/15 00:46:19;;;;;;;9.27;5.90;;;;;;;16.09;100.00;101600.25;5152714;28;20110;-66
2021/08/15 00:48:50;;;;;;;10.88;7.40;;;;;;;16.14;100.00;101600.69;5154118;28;20038;-66
2021/08/15 00:51:21;;;;;;;10.35;7.00;;;;;;;16.11;100.00;101594.84;5153174;28;20509;-66
2021/08/15 00:53:53;;;;;;;11.88;7.93;;;;;;;16.13;100.00;101599.00;5153267;28;20397;-67
2021/08/15 00:56:25;;;;;;;12.85;7.88;;;;;;;16.18;100.00;101596.75;5153253;28;20030;-67
2021/08/15 00:58:57;;;;;;;11.30;7.72;;;;;;;16.19;100.00;101594.94;5152098;28;20039;-65
2021/08/15 01:01:29;;;;;;;11.10;8.02;;;;;;;16.19;100.00;101602.88;5152441;29;20035;-66
2021/08/15 01:04:03;;;;;;;11.38;8.35;;;;;;;16.24;100.00;101598.78;5153075;28;20031;-66
2021/08/15 01:06:35;;;;;;;9.80;8.07;;;;;;;16.23;100.00;101594.47;5152495;28;20500;-66
2021/08/15 01:09:07;;;;;;;15.68;8.43;;;;;;;16.22;100.00;101592.00;5154272;29;20031;-67
2021/08/15 01:11:39;;;;;;;13.13;8.45;;;;;;;16.20;100.00;101589.50;5152659;28;20026;-66
2021/08/15 01:14:11;;;;;;;12.77;8.70;;;;;;;16.24;100.00;101579.44;5153413;29;20039;-66
2021/08/15 01:16:43;;;;;;;12.25;8.43;;;;;;;16.20;100.00;101576.28;5154036;28;20022;-66
2021/08/15 01:19:14;;;;;;;14.27;8.48;;;;;;;16.20;100.00;101573.63;5153405;28;20031;-67
2021/08/15 01:21:46;;;;;;;11.30;8.30;;;;;;;16.22;100.00;101563.75;5152126;28;20035;-67
2021/08/15 01:24:17;;;;;;;12.60;9.48;;;;;;;16.21;100.00;101563.88;5153457;29;20031;-67
2021/08/15 01:26:51;;;;;;;11.35;7.88;;;;;;;16.19;100.00;101565.84;5153213;28;20031;-67
2021/08/15 01:29:23;;;;;;;13.27;9.05;;;;;;;16.10;100.00;101558.78;5152356;29;20031;-66
2021/08/15 01:31:54;;;;;;;12.05;8.75;;;;;;;16.12;100.00;101570.06;5153508;28;20416;-68
2021/08/15 01:34:26;;;;;;;12.73;9.38;;;;;;;16.14;100.00;101563.66;5149310;28;20104;-67
2021/08/15 01:36:57;;;;;;;14.57;8.88;;;;;;;16.15;100.00;101560.03;5151634;28;20027;-65
2021/08/15 01:39:28;;;;;;;13.52;10.05;;;;;;;16.14;100.00;101558.38;5151825;28;20035;-67
2021/08/15 01:42:00;;;;;;;16.25;10.85;;;;;;;16.19;100.00;101563.22;5151982;28;20035;-67
2021/08/15 01:44:31;;;;;;;13.88;10.93;;;;;;;16.16;100.00;101553.75;5152322;28;20031;-67
2021/08/15 01:47:02;;;;;;;13.30;10.27;;;;;;;16.16;100.00;101559.03;5152823;29;20122;-67
2021/08/15 01:49:34;;;;;;;15.38;11.02;;;;;;;16.12;100.00;101559.50;5152461;28;20425;-67
2021/08/15 01:52:05;;;;;;;12.75;10.32;;;;;;;16.09;100.00;101560.63;5153445;28;20050;-66
2021/08/15 01:54:36;;;;;;;14.02;10.90;;;;;;;16.04;100.00;101553.13;5151869;28;20035;-67
2021/08/15 01:57:08;;;;;;;16.65;12.60;;;;;;;16.09;100.00;101552.69;5152636;28;20023;-66
2021/08/15 01:59:39;;;;;;;15.45;11.32;;;;;;;16.02;100.00;101541.91;5151805;28;20033;-67
2021/08/15 02:02:10;;;;;;;15.43;11.20;;;;;;;16.07;100.00;101541.44;5150943;28;20041;-68
2021/08/15 02:04:42;;;;;;;15.32;11.88;;;;;;;16.04;100.00;101542.56;5150841;28;20034;-66
2021/08/15 02:07:13;;;;;;;17.95;12.68;;;;;;;16.01;100.00;101537.56;5151572;28;20039;-66
2021/08/15 02:09:44;;;;;;;19.65;13.43;;;;;;;16.00;100.00;101535.09;5151951;28;20572;-66
2021/08/15 02:12:15;;;;;;;16.63;13.10;;;;;;;15.95;100.00;101522.31;5153164;28;20049;-66
2021/08/15 02:14:47;;;;;;;18.27;12.85;;;;;;;15.96;100.00;101526.63;5148637;29;20074;-67
2021/08/15 02:17:18;;;;;;;17.95;13.05;;;;;;;15.92;100.00;101521.78;5151735;28;20128;-66
2021/08/15 02:19:49;;;;;;;18.42;14.10;;;;;;;15.92;100.00;101522.63;5152393;28;20035;-67
2021/08/15 02:22:20;;;;;;;19.08;13.60;;;;;;;15.91;100.00;101509.53;5152393;28;20035;-67
2021/08/15 02:24:53;;;;;;;18.55;13.70;;;;;;;15.85;100.00;101503.03;5150264;28;20031;-67
2021/08/15 02:27:24;;;;;;;16.83;13.27;;;;;;;15.89;100.00;101512.34;5151730;28;20039;-68
2021/08/15 02:29:55;;;;;;;19.88;14.45;;;;;;;15.88;100.00;101509.84;5150599;28;20436;-66
2021/08/15 02:32:26;;;;;;;18.30;13.38;;;;;;;15.84;100.00;101514.59;5152419;28;20035;-65
2021/08/15 02:34:58;;;;;;;16.38;13.48;;;;;;;15.86;100.00;101509.16;5151059;28;20033;-67
2021/08/15 02:37:30;;;;;;;17.77;13.45;;;;;;;15.82;100.00;101496.25;5152541;29;20031;-66
2021/08/15 02:40:02;;;;;;;16.95;13.43;;;;;;;15.77;100.00;101502.97;5152423;29;20564;-67
2021/08/15 02:42:35;;;;;;;17.80;14.02;;;;;;;15.80;100.00;101497.38;5150406;29;20081;-66
2021/08/15 02:45:09;;;;;;;17.38;13.65;;;;;;;15.75;100.00;101487.25;5152594;29;20113;-66
2021/08/15 02:47:40;;;;;;;20.83;13.93;;;;;;;15.73;100.00;101483.94;5146073;28;20358;-67
2021/08/15 02:50:13;;;;;;;16.85;13.45;;;;;;;15.77;100.00;101484.47;5152335;28;20106;-66
2021/08/15 02:52:44;;;;;;;21.67;14.55;;;;;;;15.80;100.00;101481.53;5152427;28;20131;-67
2021/08/15 02:55:16;;;;;;;21.05;14.85;;;;;;;15.79;100.00;101485.13;5152380;28;20329;-66
2021/08/15 02:57:48;;;;;;;20.63;14.18;;;;;;;15.80;100.00;101482.34;5150907;28;20181;-66
2021/08/15 03:00:19;;;;;;;21.48;14.65;;;;;;;15.79;100.00;101474.56;5151265;28;20544;-66
2021/08/15 03:02:50;;;;;;;19.15;14.02;;;;;;;15.80;100.00;101466.50;5151563;28;20393;-66
2021/08/15 03:05:22;;;;;;;20.15;14.00;;;;;;;15.81;100.00;101476.09;5151969;28;20117;-68
2021/08/15 03:07:53;;;;;;;19.77;14.20;;;;;;;15.79;100.00;101464.81;5150040;28;20042;-68
2021/08/15 03:10:24;;;;;;;16.15;13.90;;;;;;;15.80;100.00;101466.50;5151413;29;20051;-66
2021/08/15 03:12:56;;;;;;;21.88;14.27;;;;;;;15.78;100.00;101462.34;5151431;28;20097;-67
2021/08/15 03:15:27;;;;;;;19.08;13.95;;;;;;;15.79;100.00;101469.28;5150260;28;20065;-66
2021/08/15 03:17:59;;;;;;;18.00;13.70;;;;;;;15.78;100.00;101457.88;5151198;28;20027;-66
2021/08/15 03:20:30;;;;;;;17.73;14.27;;;;;;;15.79;100.00;101469.28;5150666;28;20035;-66
2021/08/15 03:23:01;;;;;;;20.27;14.20;;;;;;;15.74;100.00;101467.09;5150907;28;20569;-66
2021/08/15 03:25:34;;;;;;;18.92;15.02;;;;;;;15.74;100.00;101456.53;5150664;28;20030;-67
2021/08/15 03:28:06;;;;;;;22.98;15.38;;;;;;;15.75;100.00;101455.53;5151983;28;20373;-65
2021/08/15 03:30:37;;;;;;;22.93;15.37;;;;;;;15.74;100.00;101458.34;5148024;28;20047;-66
2021/08/15 03:33:08;;;;;;;21.30;15.23;;;;;;;15.71;100.00;101467.38;5150842;28;20038;-66
2021/08/15 03:35:40;;;;;;;22.13;15.43;;;;;;;15.69;100.00;101463.25;5150427;28;20314;-65
2021/08/15 03:38:11;;;;;;;21.67;15.65;;;;;;;15.68;100.00;101472.13;5151356;28;20065;-66
2021/08/15 03:40:42;;;;;;;18.45;15.60;;;;;;;15.69;100.00;101466.72;5150317;28;20148;-66
2021/08/15 03:43:13;;;;;;;23.50;15.45;;;;;;;15.67;100.00;101471.31;5150971;28;20062;-67
2021/08/15 03:45:45;;;;;;;18.03;15.03;;;;;;;15.64;100.00;101468.09;5151277;28;20031;-66
2021/08/15 03:48:16;;;;;;;19.02;15.18;;;;;;;15.65;100.00;101468.00;5150521;28;20290;-67
2021/08/15 03:50:47;;;;;;;22.35;16.58;;;;;;;15.64;100.00;101460.16;5149853;28;20051;-67
2021/08/15 03:53:19;;;;;;;20.90;15.25;;;;;;;15.63;100.00;101471.72;5150753;28;20035;-66
2021/08/15 03:55:50;;;;;;;24.25;15.32;;;;;;;15.62;100.00;101475.34;5150406;28;20036;-68
2021/08/15 03:58:21;;;;;;;22.05;15.40;;;;;;;15.61;100.00;101481.59;5150446;28;20031;-67
2021/08/15 04:00:53;;;;;;;26.58;16.13;;;;;;;15.61;100.00;101479.81;5148989;28;20023;-66
2021/08/15 04:03:24;;;;;;;29.27;16.67;;;;;;;15.55;100.00;101473.28;5150168;29;20110;-67
2021/08/15 04:05:57;;;;;;;22.08;14.40;;;;;;;15.57;100.00;101479.25;5147719;28;20027;-66
2021/08/15 04:08:28;;;;;;;21.17;15.82;;;;;;;15.50;100.00;101470.25;5150687;28;20027;-67
2021/08/15 04:10:59;;;;;;;22.27;16.10;;;;;;;15.53;100.00;101469.13;5149485;28;20031;-66
2021/08/15 04:13:31;;;;;;;18.92;14.05;;;;;;;15.54;100.00;101471.63;5150453;28;20115;-67
2021/08/15 04:16:02;;;;;;;21.92;15.25;;;;;;;15.45;100.00;101469.84;5150187;29;20038;-68
2021/08/15 04:18:33;;;;;;;21.45;14.95;;;;;;;15.41;100.00;101463.19;5149344;28;20144;-66
2021/08/15 04:21:05;;;;;;;20.00;14.88;;;;;;;15.45;100.00;101467.22;5149757;28;20031;-67
2021/08/15 04:23:36;;;;;;;22.15;14.98;;;;;;;15.47;100.00;101469.72;5150079;28;20027;-66
2021/08/15 04:26:07;;;;;;;19.30;14.40;;;;;;;15.44;100.00;101477.94;5148845;28;20136;-66
2021/08/15 04:28:39;;;;;;;21.27;15.52;;;;;;;15.43;100.00;101463.91;5150583;28;21110;-66
2021/08/15 04:31:10;;;;;;;23.02;14.95;;;;;;;15.43;100.00;101453.34;5149662;28;20584;-66
2021/08/15 04:33:41;;;;;;;23.35;15.35;;;;;;;15.45;100.00;101456.66;5151442;28;20023;-67
2021/08/15 04:36:13;;;;;;;22.42;15.27;;;;;;;15.44;100.00;101460.28;5154115;28;20038;-67
2021/08/15 04:38:44;;;;;;;20.73;14.95;;;;;;;15.46;100.00;101463.63;5154236;28;20062;-66
2021/08/15 04:41:15;;;;;;;20.10;15.05;;;;;;;15.53;100.00;101463.84;5153940;28;20034;-68
2021/08/15 04:43:46;;;;;;;18.67;14.05;;;;;;;15.46;100.00;101444.31;5150603;28;20138;-67
2021/08/15 04:46:18;;;;;;;20.55;14.70;;;;;;;15.50;100.00;101449.13;5152976;28;20051;-67
2021/08/15 04:48:50;;;;;;;19.80;14.77;;;;;;;15.50;100.00;101456.22;5153383;28;20046;-67
2021/08/15 04:51:21;;;;;;;20.40;14.85;;;;;;;15.47;100.00;101452.06;5154043;28;20023;-66
2021/08/15 04:53:52;;;;;;;17.38;14.05;;;;;;;15.49;100.00;101457.19;5152595;28;20023;-67
2021/08/15 04:56:23;;;;;;;21.52;14.93;;;;;;;15.47;100.00;101448.59;5153154;28;20038;-65
2021/08/15 04:58:55;;;;;;;21.88;15.30;;;;;;;15.54;100.00;101447.03;5153360;28;20029;-66
2021/08/15 05:01:26;;;;;;;17.65;13.32;;;;;;;15.53;100.00;101440.06;5153531;28;20042;-66
2021/08/15 05:03:57;;;;;;;18.90;14.80;;;;;;;15.57;100.00;101454.66;5153135;28;20090;-66
2021/08/15 05:06:29;;;;;;;20.98;14.23;;;;;;;15.60;100.00;101454.34;5154193;28;20023;-66
2021/08/15 05:09:00;;;;;;;19.38;13.68;;;;;;;15.61;100.00;101450.75;5153065;28;20031;-66
2021/08/15 05:11:31;;;;;;;19.27;13.50;;;;;;;15.64;100.00;101453.06;5151806;29;21219;-66
2021/08/15 05:14:03;;;;;;;17.15;13.32;;;;;;;15.66;100.00;101453.81;5153939;28;20469;-66
2021/08/15 05:16:35;;;;;;;18.83;13.38;;;;;;;15.64;100.00;101434.56;5153643;29;20485;-67
2021/08/15 05:19:06;;;;;;;16.38;12.88;;;;;;;15.70;100.00;101444.59;5152626;28;20041;-65
2021/08/15 05:21:37;;;;;;;17.58;14.18;;;;;;;15.78;100.00;101446.50;5153657;28;20027;-66
2021/08/15 05:24:09;;;;;;;17.63;12.35;;;;;;;15.80;100.00;101450.66;5153573;29;20551;-66
2021/08/15 05:26:40;;;;;;;22.05;14.35;;;;;;;15.82;100.00;101448.69;5153519;28;20045;-65
2021/08/15 05:29:11;;;;;;;19.23;13.65;;;;;;;15.85;100.00;101441.44;5153380;28;20023;-67
2021/08/15 05:31:42;;;;;;;19.23;13.45;;;;;;;15.88;100.00;101441.16;5152400;28;20055;-66
2021/08/15 05:34:14;;;;;;;16.88;13.18;;;;;;;15.90;100.00;101440.00;5152485;28;20031;-67
2021/08/15 05:36:45;;;;;;;21.20;12.70;;;;;;;15.93;100.00;101442.34;5152360;28;20574;-65
2021/08/15 05:39:16;;;;;;;21.53;13.90;;;;;;;15.96;100.00;101442.06;5151567;28;20473;-66
2021/08/15 05:41:47;;;;;;;18.63;13.55;;;;;;;15.94;100.00;101429.97;5149992;28;20800;-66
2021/08/15 05:44:19;;;;;;;16.48;12.73;;;;;;;16.03;100.00;101437.00;5149257;28;20393;-68
2021/08/15 05:46:51;;;;;;;16.13;12.32;;;;;;;16.06;100.00;101428.75;5152337;29;20035;-65
2021/08/15 05:49:22;;;;;;;21.33;13.68;;;;;;;16.06;100.00;101428.75;5153887;28;20023;-67
2021/08/15 05:51:53;;;;;;;15.88;13.50;;;;;;;16.08;100.00;101426.78;5150421;29;20039;-66
2021/08/15 05:54:24;;;;;;;17.55;13.60;;;;;;;16.09;100.00;101420.53;5152206;28;20027;-67
2021/08/15 05:56:56;;;;;;;16.90;13.85;;;;;;;16.12;100.00;101425.50;5152838;28;20031;-66
2021/08/15 05:59:27;;;;;;;19.48;13.30;;;;;;;16.15;100.00;101419.94;5152904;28;20022;-67
2021/08/15 06:01:58;;;;;;;19.15;14.50;;;;;;;16.18;100.00;101426.72;5152443;28;21315;-67
2021/08/15 06:04:30;;;;;;;19.08;12.70;;;;;;;16.21;100.00;101427.25;5152179;28;20030;-67
2021/08/15 06:07:01;;;;;;;17.35;13.35;;;;;;;16.27;100.00;101418.69;5151802;28;20031;-68
2021/08/15 06:09:33;;;;;;;19.15;13.75;;;;;;;16.35;100.00;101427.69;5151519;28;20057;-67
2021/08/15 06:12:05;;;;;;;23.00;14.80;;;;;;;16.36;100.00;101416.09;5152018;28;20059;-67
2021/08/15 06:14:36;;;;;;;18.42;13.38;;;;;;;16.44;100.00;101416.16;5152445;28;20050;-66
2021/08/15 06:17:08;;;;;;;19.90;13.40;;;;;;;16.46;100.00;101409.75;5152314;28;20030;-67
2021/08/15 06:19:39;;;;;;;17.38;13.90;;;;;;;16.53;100.00;101408.16;5151266;28;20027;-66
2021/08/15 06:22:10;;;;;;;16.73;12.88;;;;;;;16.57;100.00;101406.03;5152996;28;20477;-66
2021/08/15 06:24:41;;;;;;;21.50;14.10;;;;;;;16.63;100.00;101400.13;5151880;28;20545;-67
2021/08/15 06:27:13;;;;;;;21.35;12.57;;;;;;;16.68;100.00;101400.47;5152062;28;20034;-66
2021/08/15 06:29:44;;;;;;;16.52;13.30;;;;;;;16.76;100.00;101402.38;5150437;29;20114;-67
2021/08/15 06:32:15;;;;;;;15.18;12.38;;;;;;;16.82;100.00;101401.75;5150670;28;20991;-66
2021/08/15 06:34:47;;;;;;;20.08;13.65;;;;;;;16.91;100.00;101397.31;5152078;28;20042;-66
2021/08/15 06:37:18;;;;;;;22.77;13.05;;;;;;;16.97;100.00;101396.66;5152395;28;20169;-66
2021/08/15 06:39:49;;;;;;;19.20;13.10;;;;;;;17.03;100.00;101396.88;5151540;29;20027;-66
2021/08/15 06:42:20;;;;;;;18.98;12.23;;;;;;;17.08;100.00;101395.56;5151473;28;20290;-68
2021/08/15 06:44:52;;;;;;;15.43;11.65;;;;;;;17.11;100.00;101390.78;5151718;28;20023;-66
2021/08/15 06:47:23;;;;;;;17.13;12.45;;;;;;;17.20;100.00;101397.78;5151678;29;20023;-66
2021/08/15 06:49:54;;;;;;;16.45;11.90;;;;;;;17.27;100.00;101390.00;5150313;28;20560;-66
2021/08/15 06:52:25;;;;;;;14.73;11.15;;;;;;;17.33;100.00;101389.38;5151855;28;20674;-66
2021/08/15 06:54:57;;;;;;;17.27;11.45;;;;;;;17.42;100.00;101383.09;5151023;28;20090;-66
2021/08/15 06:57:29;;;;;;;16.15;11.93;;;;;;;17.50;100.00;101382.28;5147549;29;20097;-66
2021/08/15 07:00:02;;;;;;;17.17;11.35;;;;;;;17.60;100.00;101371.56;5151430;28;20035;-66
2021/08/15 07:02:37;;;;;;;;;;;;;;;17.80;100.00;101382.69;5150916;29;20161;-67
2021/08/15 07:05:10;;;;;;;14.52;10.40;;;;;;;17.82;100.00;101386.03;5148239;28;19929;-66
2021/08/15 07:07:42;;;;;;;17.17;10.13;;;;;;;17.87;100.00;101384.53;5150852;29;20479;-65
2021/08/15 07:10:14;;;;;;;18.35;10.60;;;;;;;18.03;100.00;101380.22;5150315;28;20023;-67
2021/08/15 07:12:48;;;;;;;18.42;9.98;;;;;;;18.12;100.00;101381.91;5149891;29;20035;-67
2021/08/15 07:15:20;;;;;;;14.52;10.23;;;;;;;18.16;100.00;101364.66;5151200;29;20492;-67
2021/08/15 07:17:51;;;;;;;17.00;10.50;;;;;;;18.42;100.00;101369.78;5150252;28;20027;-66
2021/08/15 07:20:24;;;;;;;15.70;10.75;;;;;;;18.58;100.00;101377.69;5151469;28;20027;-68
2021/08/15 07:22:56;;;;;;;16.80;10.65;;;;;;;18.76;100.00;101372.19;5145442;29;20023;-66
2021/08/15 07:25:30;;;;;;;21.52;10.23;;;;;;;18.98;100.00;101369.78;5151044;28;20027;-67
2021/08/15 07:28:01;;;;;;;14.13;10.10;;;;;;;19.01;100.00;101370.28;5150122;28;20035;-67
2021/08/15 07:30:33;;;;;;;17.40;10.93;;;;;;;19.05;100.00;101363.59;5145293;28;20089;-67
2021/08/15 07:33:05;;;;;;;16.37;10.10;;;;;;;19.22;100.00;101371.53;5145002;28;20035;-66
2021/08/15 07:35:38;;;;;;;14.02;8.95;;;;;;;19.36;100.00;101360.97;5149178;28;20110;-67
2021/08/15 07:38:10;;;;;;;15.95;8.77;;;;;;;19.48;100.00;101360.59;5148698;29;20039;-67
2021/08/15 07:40:41;;;;;;;11.97;9.27;;;;;;;19.51;100.00;101368.19;5149387;28;20062;-67
2021/08/15 07:43:12;;;;;;;14.13;9.53;;;;;;;19.59;100.00;101368.97;5149742;28;20126;-68
2021/08/15 07:45:44;;;;;;;16.50;9.43;;;;;;;19.65;100.00;101368.28;5147945;28;20098;-67
2021/08/15 07:48:15;;;;;;;12.40;8.40;;;;;;;19.75;100.00;101380.53;5148037;28;20561;-67
2021/08/15 07:50:46;;;;;;;15.00;8.37;;;;;;;19.92;100.00;101374.06;5150704;28;20378;-67
2021/08/15 07:53:17;;;;;;;12.80;8.67;;;;;;;19.97;100.00;101377.03;5148373;28;20031;-66
2021/08/15 07:55:51;;;;;;;14.83;7.87;;;;;;;20.06;100.00;101383.94;5149273;28;20097;-67
2021/08/15 07:58:23;;;;;;;16.00;8.52;;;;;;;20.19;100.00;101385.97;5148503;29;20248;-66
2021/08/15 08:00:55;;;;;;;11.17;6.97;;;;;;;20.19;100.00;101383.31;5148765;28;20432;-67
2021/08/15 08:03:27;;;;;;;10.65;7.55;;;;;;;20.17;99.86;101374.69;5150376;29;20027;-66
2021/08/15 08:05:58;;;;;;;9.50;7.20;;;;;;;20.40;100.00;101377.31;5148699;29;20023;-68
2021/08/15 08:08:30;;;;;;;10.97;7.10;;;;;;;20.57;99.69;101376.16;5152963;28;20031;-67
2021/08/15 08:11:01;;;;;;;10.77;6.57;;;;;;;20.69;99.56;101367.72;5152847;28;20027;-68
2021/08/15 08:13:32;;;;;;;11.63;6.57;;;;;;;20.88;97.46;101367.16;5151159;28;20044;-68
2021/08/15 08:16:04;;;;;;;10.33;6.30;;;;;;;21.03;95.95;101373.31;5153467;28;20541;-66
2021/08/15 08:18:35;;;;;;;8.10;5.50;;;;;;;21.10;96.18;101374.22;5154213;28;20370;-67
2021/08/15 08:21:07;;;;;;;12.00;5.70;;;;;;;21.25;94.54;101368.00;5153541;28;20126;-67
2021/08/15 08:23:38;;;;;;;13.20;5.70;;;;;;;21.38;93.27;101363.69;5153432;28;20042;-68
2021/08/15 08:26:09;;;;;;;7.50;5.10;;;;;;;21.53;91.28;101365.50;5153757;28;20058;-68
2021/08/15 08:28:40;;;;;;;9.80;5.93;;;;;;;21.64;89.99;101367.66;5154319;28;20465;-68
2021/08/15 08:31:12;;;;;;;9.43;5.60;;;;;;;21.73;90.28;101358.50;5147146;28;20481;-67
2021/08/15 08:33:43;;;;;;;8.23;4.90;;;;;;;21.89;89.43;101356.56;5151105;29;20563;-67
2021/08/15 08:36:14;;;;;;;8.37;4.77;;;;;;;21.99;90.26;101360.56;5151919;28;20693;-67
2021/08/15 08:38:46;;;;;;;7.70;4.20;;;;;;;22.16;88.23;101371.00;5152560;28;20031;-67
2021/08/15 08:41:17;;;;;;;9.47;4.87;;;;;;;22.36;88.70;101361.28;5150296;28;20118;-67
2021/08/15 08:43:49;;;;;;;7.03;4.07;;;;;;;22.37;86.98;101364.78;5152596;28;20038;-68
2021/08/15 08:46:23;;;;;;;7.73;4.33;;;;;;;22.51;87.97;101362.00;5150925;28;20046;-67
2021/08/15 08:48:55;;;;;;;6.18;3.50;;;;;;;22.62;86.63;101362.50;5150585;29;20473;-67
2021/08/15 08:51:27;;;;;;;6.63;3.93;;;;;;;22.70;87.18;101355.13;5150156;29;20027;-68
2021/08/15 08:53:59;;;;;;;6.13;3.57;;;;;;;22.70;87.63;101351.66;5151994;28;20042;-68
2021/08/15 08:56:31;;;;;;;6.00;3.65;;;;;;;23.06;86.50;101359.41;5152109;28;20496;-68
2021/08/15 08:59:02;;;;;;;7.50;4.60;;;;;;;23.22;86.87;101356.41;5151972;29;20114;-68
2021/08/15 09:01:33;;;;;;;7.27;3.83;;;;;;;23.25;87.09;101356.00;5153254;28;20062;-69
2021/08/15 09:04:05;;;;;;;6.70;3.40;;;;;;;23.22;85.19;101361.75;5152592;29;20023;-69
2021/08/15 09:06:39;;;;;;;7.17;3.60;;;;;;;23.24;85.30;101345.50;5150205;28;20130;-69
2021/08/15 09:09:13;;;;;;;6.88;4.05;;;;;;;23.23;84.19;101354.56;5151859;29;20035;-69
2021/08/15 09:11:46;;;;;;;7.15;4.05;;;;;;;23.27;83.26;101347.78;5146018;29;20236;-69
2021/08/15 09:14:20;;;;;;;7.07;3.58;;;;;;;23.22;84.92;101340.38;5153543;28;20042;-68
2021/08/15 09:17:03;;;;;;;8.95;4.18;;;;;;;23.40;85.25;101346.97;5150758;28;20023;-68
2021/08/15 09:19:47;;;;;;;7.63;3.33;;;;;;;23.49;84.66;101341.25;5148012;28;20035;-68
2021/08/15 09:22:27;;;;;;;7.70;3.72;;;;;;;23.49;83.95;101343.94;5148014;29;20485;-68
2021/08/15 09:25:00;;;;;;;6.20;3.97;;;;;;;23.48;82.90;101342.25;5148934;28;20027;-69
2021/08/15 09:27:38;;;;;;;6.82;3.53;;;;;;;23.77;83.36;101337.59;5153274;28;20027;-70
2021/08/15 09:30:17;;;;;;;6.88;3.20;;;;;;;23.98;83.96;101334.72;5151115;29;20046;-68
2021/08/15 09:32:56;;;;;;;9.68;3.67;;;;;;;24.12;81.84;101334.72;5153137;28;20035;-68
2021/08/15 09:35:36;;;;;;;7.10;3.80;;;;;;;24.26;81.65;101329.13;5144932;28;20058;-68
2021/08/15 09:38:09;;;;;;;8.00;3.25;;;;;;;24.37;81.19;101338.38;5150521;28;20024;-70
2021/08/15 09:40:49;;;;;;;6.20;3.95;;;;;;;24.51;80.64;101325.81;5145810;28;20150;-70
2021/08/15 09:43:30;;;;;;;6.85;3.65;;;;;;;24.62;80.90;101325.13;5149015;28;20552;-70
2021/08/15 09:46:02;;;;;;;6.78;3.53;;;;;;;24.63;79.44;101324.13;5151687;28;20038;-70
2021/08/15 09:48:39;;;;;;;5.43;3.20;;;;;;;24.70;77.10;101322.25;5149687;28;20521;-70
2021/08/15 09:51:23;;;;;;;5.65;3.17;;;;;;;24.75;77.31;101324.28;5149745;28;20061;-68
2021/08/15 09:53:58;;;;;;;7.30;3.25;;;;;;;24.77;76.57;101322.19;5151394;28;20065;-68
2021/08/15 09:56:37;;;;;;;6.43;3.20;;;;;;;24.85;76.34;101319.31;5150940;28;20081;-70
2021/08/15 09:59:20;;;;;;;8.07;3.35;;;;;;;25.06;76.87;101320.03;5149749;28;20117;-69
2021/08/15 10:01:54;;;;;;;9.13;3.50;;;;;;;25.05;75.38;101319.22;5150474;29;20034;-68
2021/08/15 10:04:25;;;;;;;4.57;3.05;;;;;;;25.16;75.60;101320.41;5149377;28;20037;-69
2021/08/15 10:06:56;;;;;;;9.07;3.93;;;;;;;25.20;74.80;101317.09;5148986;28;20315;-68
2021/08/15 10:09:30;;;;;;;7.87;3.47;;;;;;;25.30;73.60;101316.59;5148148;28;20178;-68
2021/08/15 10:12:01;;;;;;;7.40;3.95;;;;;;;25.37;72.54;101314.69;5148954;29;20113;-67
2021/08/15 10:14:32;;;;;;;7.47;3.23;;;;;;;25.52;72.57;101319.75;5151706;28;20037;-68
2021/08/15 10:17:08;;;;;;;7.07;3.23;;;;;;;25.65;71.96;101318.84;5150547;29;20130;-69
2021/08/15 10:19:55;;;;;;;6.60;3.45;;;;;;;25.80;72.67;101319.38;5151590;29;20518;-68
2021/08/15 10:22:31;;;;;;;7.20;3.40;;;;;;;25.93;71.56;101305.00;5146554;29;20477;-69
2021/08/15 10:25:08;;;;;;;5.53;3.05;;;;;;;26.03;71.08;101301.84;5145618;29;20031;-69
2021/08/15 10:27:39;;;;;;;4.70;2.78;;;;;;;26.20;69.98;101301.00;5151435;28;20398;-69
2021/08/15 10:30:14;;;;;;;5.47;3.27;;;;;;;26.36;70.97;101298.78;5150537;28;20039;-69
2021/08/15 10:32:54;;;;;;;6.93;3.30;;;;;;;26.40;67.88;101305.34;5152248;29;20868;-69
2021/08/15 10:35:38;;;;;;;4.47;2.60;;;;;;;26.57;69.45;101294.88;5149686;29;20027;-68
2021/08/15 10:38:15;;;;;;;5.63;2.90;;;;;;;26.64;67.22;101290.25;5150871;29;20023;-70
2021/08/15 10:40:49;;;;;;;5.22;3.05;;;;;;;26.75;68.05;101286.78;5149825;29;20508;-69
2021/08/15 10:43:23;;;;;;;5.20;3.05;;;;;;;26.74;68.11;101287.81;5149698;28;20601;-68
2021/08/15 10:46:12;;;;;;;5.80;3.08;;;;;;;26.60;67.23;101289.88;5149669;28;20413;-68
2021/08/15 10:48:52;;;;;;;5.00;2.83;;;;;;;26.69;66.37;101285.00;5147353;29;20369;-68
2021/08/15 10:51:43;;;;;;;6.30;3.00;;;;;;;26.72;67.03;101283.72;5150150;28;20035;-68
2021/08/15 10:54:40;;;;;;;5.07;2.83;;;;;;;26.51;66.12;101279.63;5147085;28;20019;-68
2021/08/15 10:57:35;;;;;;;5.47;3.17;;;;;;;26.65;65.10;101276.56;5146916;28;20031;-68
2021/08/15 11:00:28;;;;;;;6.40;3.05;;;;;;;26.77;65.21;101279.31;5149373;29;20019;-68
2021/08/15 11:03:21;;;;;;;4.70;2.80;;;;;;;26.84;65.32;101282.72;5148481;28;20066;-69
2021/08/15 11:05:52;;;;;;;4.75;2.55;;;;;;;26.64;64.24;101269.56;5147891;29;20032;-70
2021/08/15 11:08:33;;;;;;;6.13;2.70;;;;;;;26.51;64.45;101285.00;5149705;28;20062;-69
2021/08/15 11:11:06;;;;;;;4.32;2.60;;;;;;;26.50;64.46;101272.63;5150400;29;20035;-68
2021/08/15 11:13:38;;;;;;;5.40;2.50;;;;;;;26.54;64.62;101273.81;5150738;29;20038;-67
2021/08/15 11:16:24;;;;;;;4.43;2.30;;;;;;;26.59;64.88;101268.56;5151078;28;20034;-67
2021/08/15 11:19:08;;;;;;;5.88;2.63;;;;;;;26.67;65.75;101268.28;5149737;29;20054;-67
2021/08/15 11:22:14;;;;;;;3.60;2.25;;;;;;;26.57;64.04;101262.63;5148800;29;20086;-68
2021/08/15 11:24:45;;;;;;;4.35;2.58;;;;;;;26.61;63.75;101261.13;5148517;29;20034;-68
2021/08/15 11:27:27;;;;;;;5.63;2.77;;;;;;;26.76;63.77;101260.72;5150400;28;20035;-68
2021/08/15 11:30:01;;;;;;;;;;;;;;;27.04;64.18;101257.41;5149212;29;20035;-70
2021/08/15 11:32:33;;;;;;;6.22;2.50;;;;;;;26.80;63.31;101261.91;5150641;28;19925;-70
2021/08/15 11:35:10;;;;;;;5.47;2.65;;;;;;;26.83;63.07;101239.94;5148467;29;20125;-68